Terminal Aerodrome Forecast
Issued by NWS

Home | Current Version | Previous Version | Text Only | Print | Product List | Glossary On
Versions: 1 2 3 4 5 6 7 8 9 10 11 12 13 14 15 16 17 18 19
000
FTUS46 KSEW 251700 RRA
TAFBFI
TAF
KBFI 251741Z 2518/2618 20007KT P6SM OVC025
     FM252200 21005KT P6SM SCT030 BKN045
     FM260500 18004KT P6SM BKN030 OVC040
     FM261000 17003KT P6SM BKN012 OVC020
     FM261700 20005KT P6SM OVC020=

USA.gov is the U.S. government's official web portal to all federal, state and local government web resources and services.